Time;durP1;ratioP1;P1;durP2;ratioP2;P2;SDS_P1;SDS_P2;PMS_P1;PMS_P2;Temp;Humidity;BMP_temperature;BMP_pressure;BME280_temperature;BME280_humidity;BME280_pressure;Samples;Min_cycle;Max_cycle;Signal;HPM_P1;HPM_P2
2022/01/01 00:01:30;;;;;;;90.15;39.53;;;10.20;99.90;;;;;;5013089;28;20499;-67
2022/01/01 00:03:55;;;;;;;78.60;36.92;;;10.10;99.90;;;;;;5009497;28;20054;-67
2022/01/01 00:06:21;;;;;;;85.53;39.90;;;10.10;99.90;;;;;;5028407;28;20049;-67
2022/01/01 00:08:46;;;;;;;84.03;40.40;;;10.20;99.90;;;;;;5026285;28;20100;-67
2022/01/01 00:11:13;;;;;;;77.32;38.97;;;10.20;99.90;;;;;;5022443;28;20092;-67
2022/01/01 00:13:39;;;;;;;95.43;43.33;;;10.20;99.90;;;;;;5009258;28;20091;-67
2022/01/01 00:16:09;;;;;;;84.60;40.85;;;10.10;99.90;;;;;;5011552;28;20650;-67
2022/01/01 00:18:35;;;;;;;79.63;37.42;;;10.10;99.90;;;;;;4995676;28;20104;-68
2022/01/01 00:21:01;;;;;;;80.03;40.85;;;10.20;99.90;;;;;;5015668;28;20079;-67
2022/01/01 00:23:26;;;;;;;75.88;39.03;;;10.10;99.90;;;;;;5030707;28;20434;-67
2022/01/01 00:25:52;;;;;;;85.25;37.33;;;10.20;99.90;;;;;;5010884;28;20162;-67
2022/01/01 00:28:17;;;;;;;71.07;31.65;;;10.10;99.90;;;;;;5023255;28;20081;-67
2022/01/01 00:30:43;;;;;;;62.72;29.75;;;10.20;99.90;;;;;;4992837;28;20046;-67
2022/01/01 00:33:08;;;;;;;70.20;24.98;;;10.20;99.90;;;;;;5009454;28;20393;-67
2022/01/01 00:35:34;;;;;;;68.88;21.33;;;10.10;99.90;;;;;;5018174;28;20572;-67
2022/01/01 00:37:59;;;;;;;47.67;17.17;;;10.10;99.90;;;;;;5000068;28;20397;-67
2022/01/01 00:40:25;;;;;;;47.00;15.23;;;10.10;99.90;;;;;;5009119;28;20046;-67
2022/01/01 00:42:50;;;;;;;40.67;13.65;;;10.10;99.90;;;;;;5015709;28;20053;-67
2022/01/01 00:45:16;;;;;;;43.75;13.23;;;10.10;99.90;;;;;;4999898;28;20061;-67
2022/01/01 00:47:42;;;;;;;49.30;13.20;;;10.10;99.90;;;;;;5028354;28;20127;-67
2022/01/01 00:50:08;;;;;;;50.00;15.20;;;10.00;99.90;;;;;;5028970;28;20132;-68
2022/01/01 00:52:33;;;;;;;62.00;15.13;;;10.00;99.90;;;;;;5018355;28;20045;-67
2022/01/01 00:54:59;;;;;;;52.63;14.02;;;10.00;99.90;;;;;;5011387;28;20037;-67
2022/01/01 00:57:25;;;;;;;48.00;14.48;;;10.00;99.90;;;;;;5029755;28;20088;-67
2022/01/01 00:59:51;;;;;;;48.08;14.50;;;9.90;99.90;;;;;;5028095;28;20045;-67
2022/01/01 01:02:16;;;;;;;47.88;16.95;;;9.90;99.90;;;;;;5027291;28;20053;-68
2022/01/01 01:04:42;;;;;;;47.40;14.63;;;9.90;99.90;;;;;;5011850;28;20104;-67
2022/01/01 01:07:10;;;;;;;39.17;13.73;;;9.90;99.90;;;;;;5003339;28;20046;-67
2022/01/01 01:09:35;;;;;;;56.13;15.75;;;9.90;99.90;;;;;;5023706;28;20053;-67
2022/01/01 01:12:01;;;;;;;47.25;14.98;;;9.90;99.90;;;;;;5009210;28;20042;-67
2022/01/01 01:14:28;;;;;;;49.75;18.05;;;9.90;99.90;;;;;;5016546;28;20468;-67
2022/01/01 01:16:54;;;;;;;45.28;14.88;;;9.80;99.90;;;;;;5010342;28;20080;-67
2022/01/01 01:19:20;;;;;;;55.33;15.35;;;9.80;99.90;;;;;;5029303;28;20046;-67
2022/01/01 01:21:45;;;;;;;48.22;14.93;;;9.70;99.90;;;;;;5010767;28;20491;-67
2022/01/01 01:24:15;;;;;;;44.05;14.38;;;9.70;99.90;;;;;;5015664;28;20132;-67
2022/01/01 01:26:47;;;;;;;47.28;13.43;;;9.60;99.90;;;;;;5009271;28;20553;-67
2022/01/01 01:29:13;;;;;;;48.65;13.80;;;9.60;99.90;;;;;;5013517;28;20046;-67
2022/01/01 01:31:38;;;;;;;47.28;14.07;;;9.50;99.90;;;;;;5027851;28;20041;-67
2022/01/01 01:34:04;;;;;;;52.22;13.45;;;9.50;99.90;;;;;;5012685;28;20049;-67
2022/01/01 01:36:29;;;;;;;56.50;15.60;;;9.50;99.90;;;;;;5028157;28;20046;-67
2022/01/01 01:38:55;;;;;;;59.15;15.95;;;9.50;99.90;;;;;;5015771;28;20049;-67
2022/01/01 01:41:20;;;;;;;47.75;16.45;;;9.50;99.90;;;;;;5008895;28;20053;-67
2022/01/01 01:43:50;;;;;;;160.02;90.00;;;9.40;99.90;;;;;;5015481;28;20412;-67
2022/01/01 01:46:16;;;;;;;90.65;34.15;;;9.40;99.90;;;;;;5012861;28;20049;-68
2022/01/01 01:48:44;;;;;;;65.43;20.15;;;9.40;99.90;;;;;;5022415;28;20088;-67
2022/01/01 01:51:11;;;;;;;68.13;23.58;;;9.50;99.90;;;;;;5006875;28;20054;-67
2022/01/01 01:53:38;;;;;;;64.88;23.45;;;9.50;99.90;;;;;;5018399;28;20050;-67
2022/01/01 01:56:03;;;;;;;75.50;23.13;;;9.40;99.90;;;;;;5027963;28;20050;-67
2022/01/01 01:58:30;;;;;;;71.43;23.58;;;9.50;99.90;;;;;;5018355;28;20045;-67
2022/01/01 02:01:20;;;;;;;68.15;24.83;;;9.50;99.90;;;;;;5008252;28;20053;-67
2022/01/01 02:03:44;;;;;;;76.57;25.92;;;9.50;99.90;;;;;;5008439;28;20060;-67
2022/01/01 02:06:10;;;;;;;65.03;22.10;;;9.50;99.90;;;;;;5007209;28;20046;-67
2022/01/01 02:08:36;;;;;;;63.63;23.52;;;9.50;99.90;;;;;;5022794;28;20045;-67
2022/01/01 02:11:04;;;;;;;66.35;25.05;;;9.50;99.90;;;;;;5031373;28;20452;-67
2022/01/01 02:13:35;;;;;;;65.97;21.90;;;9.40;99.90;;;;;;5014810;28;20095;-67
2022/01/01 02:16:28;;;;;;;64.55;23.73;;;9.40;99.90;;;;;;5003836;28;20107;-67
2022/01/01 02:18:54;;;;;;;70.93;24.80;;;9.40;99.90;;;;;;5030518;28;20054;-67
2022/01/01 02:21:21;;;;;;;75.75;26.95;;;9.40;99.90;;;;;;5032001;28;20044;-68
2022/01/01 02:23:48;;;;;;;86.28;27.08;;;9.40;99.90;;;;;;5026459;28;20052;-67
2022/01/01 02:26:15;;;;;;;82.78;29.08;;;9.40;99.90;;;;;;5023402;28;20729;-67
2022/01/01 02:28:45;;;;;;;77.53;31.10;;;9.40;99.90;;;;;;5015808;28;20625;-67
2022/01/01 02:31:12;;;;;;;76.78;32.20;;;9.30;99.90;;;;;;5030488;28;20127;-67
2022/01/01 02:33:38;;;;;;;91.20;36.97;;;9.40;99.90;;;;;;5012305;28;20425;-67
2022/01/01 02:36:06;;;;;;;89.13;36.88;;;9.30;99.90;;;;;;5025594;28;20049;-67
2022/01/01 02:38:32;;;;;;;85.68;33.90;;;9.30;99.90;;;;;;5020364;28;20117;-67
2022/01/01 02:40:58;;;;;;;89.25;35.40;;;9.30;99.90;;;;;;4993187;28;20101;-67
2022/01/01 02:43:25;;;;;;;91.22;31.52;;;9.30;99.90;;;;;;5029603;28;20053;-67
2022/01/01 02:45:50;;;;;;;76.57;28.70;;;9.30;99.90;;;;;;5012370;28;20501;-67
2022/01/01 02:48:16;;;;;;;95.35;30.00;;;9.40;99.90;;;;;;5020682;28;20065;-67
2022/01/01 02:50:41;;;;;;;86.30;25.60;;;9.40;99.90;;;;;;5023594;28;20045;-67
2022/01/01 02:53:16;;;;;;;79.45;25.58;;;9.40;99.90;;;;;;5024866;28;20033;-67
2022/01/01 02:55:43;;;;;;;77.28;23.70;;;9.40;99.90;;;;;;5012213;28;20045;-67
2022/01/01 02:58:10;;;;;;;77.35;22.33;;;9.40;99.90;;;;;;5028025;28;20511;-67
2022/01/01 03:00:36;;;;;;;70.80;21.52;;;9.50;99.90;;;;;;5023562;28;20042;-67
2022/01/01 03:03:02;;;;;;;74.57;20.95;;;9.40;99.90;;;;;;5023160;28;20045;-67
2022/01/01 03:05:30;;;;;;;78.03;20.52;;;9.40;99.90;;;;;;5029295;28;20107;-67
2022/01/01 03:07:56;;;;;;;77.32;23.00;;;9.40;99.90;;;;;;5022642;28;20140;-67
2022/01/01 03:10:21;;;;;;;85.60;21.50;;;9.50;99.90;;;;;;5023522;28;20119;-67
2022/01/01 03:12:47;;;;;;;68.72;18.75;;;9.50;99.90;;;;;;5029319;28;20044;-67
2022/01/01 03:15:12;;;;;;;81.68;21.25;;;9.40;99.90;;;;;;5028990;28;20037;-67
2022/01/01 03:17:38;;;;;;;86.15;18.83;;;9.40;99.90;;;;;;5018508;28;20437;-67
2022/01/01 03:20:05;;;;;;;70.75;20.33;;;9.40;99.90;;;;;;5010935;28;20054;-67
2022/01/01 03:22:30;;;;;;;68.00;22.23;;;9.40;99.90;;;;;;5024618;28;20447;-67
2022/01/01 03:24:56;;;;;;;66.57;21.73;;;9.40;99.90;;;;;;5012966;28;20041;-67
2022/01/01 03:27:21;;;;;;;94.78;24.98;;;9.40;99.90;;;;;;5006896;28;20467;-67
2022/01/01 03:29:47;;;;;;;73.28;24.02;;;9.30;99.90;;;;;;5030383;28;20052;-67
2022/01/01 03:32:12;;;;;;;94.65;26.77;;;9.30;99.90;;;;;;5028751;28;20053;-67
2022/01/01 03:34:38;;;;;;;84.57;25.80;;;9.30;99.90;;;;;;5030170;28;20042;-67
2022/01/01 03:37:04;;;;;;;101.10;24.20;;;9.20;99.90;;;;;;5025742;28;20046;-67
2022/01/01 03:39:29;;;;;;;78.13;23.33;;;9.20;99.90;;;;;;5015327;28;20406;-67
2022/01/01 03:41:55;;;;;;;74.88;24.85;;;9.20;99.90;;;;;;5025150;28;20049;-67
2022/01/01 03:44:21;;;;;;;93.75;25.67;;;9.20;99.90;;;;;;5010524;28;20054;-67
2022/01/01 03:46:47;;;;;;;84.78;23.85;;;9.20;99.90;;;;;;5004320;28;20049;-67
2022/01/01 03:49:12;;;;;;;79.93;23.38;;;9.20;99.90;;;;;;5030600;28;20649;-67
2022/01/01 03:51:38;;;;;;;85.38;23.30;;;9.20;99.90;;;;;;5021155;28;20049;-66
2022/01/01 03:54:03;;;;;;;71.43;23.05;;;9.20;99.90;;;;;;4992828;28;20041;-67
2022/01/01 03:56:29;;;;;;;72.43;22.83;;;9.30;99.90;;;;;;5021967;28;20038;-67
2022/01/01 03:58:54;;;;;;;79.53;22.23;;;9.30;99.90;;;;;;5026149;28;20089;-67
2022/01/01 04:01:20;;;;;;;77.18;23.10;;;9.30;99.90;;;;;;5010994;28;20061;-67
2022/01/01 04:03:45;;;;;;;74.45;23.20;;;9.30;99.90;;;;;;5026315;28;20050;-66
2022/01/01 04:06:11;;;;;;;86.05;24.77;;;9.40;99.90;;;;;;5023568;28;20049;-67
2022/01/01 04:08:36;;;;;;;78.65;24.55;;;9.40;99.90;;;;;;5018996;28;20085;-67
2022/01/01 04:11:02;;;;;;;86.97;22.88;;;9.40;99.90;;;;;;5017063;28;20098;-67
2022/01/01 04:13:28;;;;;;;67.65;24.65;;;9.50;99.90;;;;;;5029659;28;20038;-67
2022/01/01 04:15:53;;;;;;;78.00;25.83;;;9.50;99.90;;;;;;5022019;28;20127;-67
2022/01/01 04:18:28;;;;;;;79.68;26.33;;;9.50;99.90;;;;;;5023476;28;20072;-67
2022/01/01 04:20:53;;;;;;;91.25;28.65;;;9.50;99.90;;;;;;5027750;28;20501;-67
2022/01/01 04:23:19;;;;;;;62.10;24.52;;;9.50;99.90;;;;;;5024476;28;20112;-67
2022/01/01 04:25:47;;;;;;;75.38;25.13;;;9.40;99.90;;;;;;5007612;28;20505;-67
2022/01/01 04:28:13;;;;;;;74.10;25.08;;;9.40;99.90;;;;;;5009786;28;20068;-66
2022/01/01 04:30:39;;;;;;;77.43;23.58;;;9.40;99.90;;;;;;5009557;28;20053;-66
2022/01/01 04:33:05;;;;;;;79.82;24.17;;;9.40;99.90;;;;;;5008709;28;20413;-67
2022/01/01 04:35:30;;;;;;;69.90;25.27;;;9.40;99.90;;;;;;4999551;28;20486;-66
2022/01/01 04:37:56;;;;;;;61.63;23.88;;;9.40;99.90;;;;;;5027124;28;20050;-66
2022/01/01 04:40:22;;;;;;;64.00;24.17;;;9.40;99.90;;;;;;5002778;28;20667;-67
2022/01/01 04:42:47;;;;;;;83.82;38.65;;;9.50;99.90;;;;;;5013490;28;20504;-67
2022/01/01 04:45:13;;;;;;;78.22;28.90;;;9.50;99.90;;;;;;5000028;28;20057;-67
2022/01/01 04:47:39;;;;;;;85.40;27.58;;;9.50;99.90;;;;;;5009440;28;20103;-66
2022/01/01 04:50:05;;;;;;;77.88;27.33;;;9.60;99.90;;;;;;5009036;28;20102;-67
2022/01/01 04:52:31;;;;;;;67.47;29.60;;;9.60;99.90;;;;;;5020170;28;20054;-67
2022/01/01 04:54:57;;;;;;;77.18;28.08;;;9.70;99.90;;;;;;5009203;28;20053;-67
2022/01/01 04:57:28;;;;;;;104.28;33.03;;;9.70;99.90;;;;;;5007638;28;20048;-67
2022/01/01 04:59:54;;;;;;;113.15;33.38;;;9.80;99.90;;;;;;5025611;28;20074;-67
2022/01/01 05:02:19;;;;;;;100.15;30.83;;;9.90;99.90;;;;;;5008459;28;20053;-67
2022/01/01 05:04:45;;;;;;;98.82;30.48;;;9.90;99.90;;;;;;5011848;28;20077;-66
2022/01/01 05:07:10;;;;;;;99.35;29.42;;;10.00;99.90;;;;;;5016794;28;20432;-66
2022/01/01 05:09:36;;;;;;;117.80;30.60;;;10.00;99.90;;;;;;5010117;28;20119;-67
2022/01/01 05:12:02;;;;;;;107.60;29.10;;;10.10;99.90;;;;;;5009058;28;20404;-67
2022/01/01 05:14:29;;;;;;;97.70;28.83;;;10.10;99.90;;;;;;5008502;28;20103;-67
2022/01/01 05:16:56;;;;;;;124.03;29.33;;;10.10;99.90;;;;;;5008550;28;20076;-67
2022/01/01 05:19:22;;;;;;;102.45;28.73;;;10.10;99.90;;;;;;5026694;28;20561;-67
2022/01/01 05:21:47;;;;;;;100.70;28.23;;;10.20;99.90;;;;;;5017599;28;20113;-67
2022/01/01 05:24:18;;;;;;;97.22;25.58;;;10.20;99.90;;;;;;5012321;28;20120;-67
2022/01/01 05:26:44;;;;;;;106.00;28.08;;;10.20;99.90;;;;;;5007800;28;20144;-66
2022/01/01 05:29:09;;;;;;;110.93;28.65;;;10.30;99.90;;;;;;5016580;28;20046;-67
2022/01/01 05:31:35;;;;;;;87.15;25.48;;;10.30;99.90;;;;;;5008774;28;20057;-67
2022/01/01 05:34:01;;;;;;;89.50;26.70;;;10.30;99.90;;;;;;5010673;28;20049;-67
2022/01/01 05:36:27;;;;;;;79.95;26.05;;;10.30;99.90;;;;;;5010526;28;20077;-67
2022/01/01 05:38:53;;;;;;;78.53;24.42;;;10.30;99.90;;;;;;5018843;28;20050;-67
2022/01/01 05:41:18;;;;;;;73.95;24.27;;;10.40;99.90;;;;;;5008418;28;20555;-67
2022/01/01 05:43:44;;;;;;;69.38;23.65;;;10.40;99.90;;;;;;5009355;28;20092;-67
2022/01/01 05:46:09;;;;;;;62.97;22.00;;;10.40;99.90;;;;;;5010892;28;20707;-67
2022/01/01 05:48:35;;;;;;;60.78;21.42;;;10.50;99.90;;;;;;5017986;28;20500;-67
2022/01/01 05:51:01;;;;;;;81.00;23.65;;;10.50;99.90;;;;;;5007969;28;20103;-67
2022/01/01 05:53:26;;;;;;;61.42;22.83;;;10.60;99.90;;;;;;5022447;28;20053;-67
2022/01/01 05:55:52;;;;;;;67.82;21.67;;;10.60;99.90;;;;;;5025413;28;20048;-67
2022/01/01 05:58:17;;;;;;;61.78;20.48;;;10.60;99.90;;;;;;5023171;28;20049;-67
2022/01/01 06:00:43;;;;;;;56.00;19.73;;;10.60;99.90;;;;;;5013675;28;20049;-67
2022/01/01 06:03:09;;;;;;;50.95;18.17;;;10.70;99.90;;;;;;5006008;28;20041;-67
2022/01/01 06:05:34;;;;;;;46.83;17.02;;;10.70;99.90;;;;;;5013943;28;20076;-67
2022/01/01 06:08:00;;;;;;;66.45;18.92;;;10.70;99.90;;;;;;5023974;28;20070;-67
2022/01/01 06:10:27;;;;;;;57.15;19.67;;;10.70;99.90;;;;;;5021920;28;20052;-66
2022/01/01 06:12:53;;;;;;;55.30;21.15;;;10.60;99.90;;;;;;5026000;28;20420;-67
2022/01/01 06:15:20;;;;;;;50.65;18.25;;;10.60;99.90;;;;;;5020602;28;20046;-67
2022/01/01 06:17:45;;;;;;;47.00;17.42;;;10.60;99.90;;;;;;5023611;28;20046;-67
2022/01/01 06:20:11;;;;;;;50.50;19.27;;;10.50;99.90;;;;;;5015811;28;20124;-67
2022/01/01 06:22:37;;;;;;;46.92;16.98;;;10.50;99.90;;;;;;5026460;28;20478;-67
2022/01/01 06:25:04;;;;;;;42.90;16.23;;;10.40;99.90;;;;;;5021385;28;20108;-67
2022/01/01 06:27:29;;;;;;;50.05;17.55;;;10.40;99.90;;;;;;4994091;28;20042;-67
2022/01/01 06:29:55;;;;;;;48.60;15.68;;;10.40;99.90;;;;;;5010482;28;20056;-67
2022/01/01 06:32:20;;;;;;;60.90;17.00;;;10.40;99.90;;;;;;5025605;28;20049;-67
2022/01/01 06:34:46;;;;;;;44.75;14.65;;;10.40;99.90;;;;;;5018553;28;20383;-67
2022/01/01 06:37:11;;;;;;;52.03;15.27;;;10.40;99.90;;;;;;5022892;28;20048;-66
2022/01/01 06:39:37;;;;;;;50.33;16.35;;;10.40;99.90;;;;;;5015432;28;20037;-66
2022/01/01 06:42:03;;;;;;;47.35;15.63;;;10.40;99.90;;;;;;5019800;28;20122;-67
2022/01/01 06:44:28;;;;;;;40.10;15.45;;;10.40;99.90;;;;;;5027141;28;20049;-67
2022/01/01 06:46:55;;;;;;;47.58;15.57;;;10.40;99.90;;;;;;5003950;28;20052;-67
2022/01/01 06:49:20;;;;;;;43.75;15.98;;;10.40;99.90;;;;;;5000027;28;20053;-66
2022/01/01 06:51:46;;;;;;;39.03;15.23;;;10.40;99.90;;;;;;5023173;28;20157;-67
2022/01/01 06:54:12;;;;;;;49.58;18.15;;;10.40;99.90;;;;;;4995604;28;20049;-67
2022/01/01 06:56:37;;;;;;;62.45;20.83;;;10.50;99.90;;;;;;5025146;28;20049;-67
2022/01/01 06:59:03;;;;;;;58.38;21.92;;;10.50;99.90;;;;;;5016952;28;20049;-67
2022/01/01 07:01:29;;;;;;;54.53;21.00;;;10.60;99.90;;;;;;5013629;28;20064;-67
2022/01/01 07:03:55;;;;;;;59.88;22.08;;;10.60;99.90;;;;;;5018800;28;20057;-67
2022/01/01 07:06:21;;;;;;;73.97;25.85;;;10.60;99.90;;;;;;5004534;28;20045;-67
2022/01/01 07:08:47;;;;;;;68.15;25.00;;;10.70;99.90;;;;;;5013393;28;20046;-67
2022/01/01 07:11:12;;;;;;;58.08;24.02;;;10.70;99.90;;;;;;5029474;28;21060;-67
2022/01/01 07:13:38;;;;;;;62.72;23.92;;;10.70;99.90;;;;;;5023555;28;20566;-67
2022/01/01 07:16:05;;;;;;;68.40;27.08;;;10.80;99.90;;;;;;5023397;28;20124;-66
2022/01/01 07:18:30;;;;;;;77.85;27.45;;;10.80;99.90;;;;;;5027801;28;20505;-66
2022/01/01 07:20:56;;;;;;;71.63;25.33;;;10.80;99.90;;;;;;5017662;28;20053;-67
2022/01/01 07:23:21;;;;;;;71.45;26.83;;;10.80;99.90;;;;;;5019276;28;20396;-67
2022/01/01 07:25:47;;;;;;;71.47;27.77;;;10.80;99.90;;;;;;5028546;28;20053;-67
2022/01/01 07:28:16;;;;;;;65.35;24.90;;;10.80;99.90;;;;;;5026594;28;20052;-66
2022/01/01 07:30:42;;;;;;;63.22;26.10;;;10.80;99.90;;;;;;5030202;28;20590;-66
2022/01/01 07:33:10;;;;;;;81.03;28.80;;;10.80;99.90;;;;;;5029327;28;20443;-67
2022/01/01 07:35:37;;;;;;;66.47;29.00;;;10.80;99.90;;;;;;5003642;28;20060;-66
2022/01/01 07:38:03;;;;;;;75.35;30.05;;;10.80;99.90;;;;;;5026411;28;20120;-66
2022/01/01 07:40:30;;;;;;;72.43;31.02;;;10.80;99.90;;;;;;5028143;28;20080;-66
2022/01/01 07:42:56;;;;;;;76.65;32.50;;;10.90;99.90;;;;;;5008005;28;20073;-67
2022/01/01 07:45:22;;;;;;;64.70;31.63;;;10.90;99.90;;;;;;5008361;28;20083;-67
2022/01/01 07:47:47;;;;;;;66.93;31.58;;;10.90;99.90;;;;;;5021403;28;20037;-67
2022/01/01 07:50:13;;;;;;;74.05;31.90;;;11.00;99.90;;;;;;5027065;28;20045;-67
2022/01/01 07:52:39;;;;;;;68.10;30.65;;;11.00;99.90;;;;;;5026080;28;20038;-67
2022/01/01 07:55:05;;;;;;;66.40;30.50;;;11.00;99.90;;;;;;5009527;28;20049;-67
2022/01/01 07:57:31;;;;;;;74.00;29.25;;;11.00;99.90;;;;;;5025061;28;20041;-67
2022/01/01 07:59:56;;;;;;;87.00;31.23;;;11.00;99.90;;;;;;5016167;28;20124;-68
2022/01/01 08:02:22;;;;;;;70.60;28.92;;;11.00;99.90;;;;;;5010963;28;20551;-67
2022/01/01 08:04:48;;;;;;;57.45;25.85;;;11.00;99.90;;;;;;5025620;28;20473;-68
2022/01/01 08:07:13;;;;;;;59.45;27.58;;;11.00;99.90;;;;;;5013522;28;20038;-67
2022/01/01 08:09:39;;;;;;;65.00;26.73;;;11.00;99.90;;;;;;5009981;28;20104;-67
2022/01/01 08:12:06;;;;;;;67.18;28.23;;;11.00;99.90;;;;;;5015421;28;20056;-68
2022/01/01 08:14:32;;;;;;;69.57;30.33;;;10.90;99.90;;;;;;5010064;28;20092;-68
2022/01/01 08:16:58;;;;;;;63.15;28.25;;;10.90;99.90;;;;;;5023298;28;20061;-68
2022/01/01 08:19:24;;;;;;;61.28;27.25;;;10.90;99.90;;;;;;5027262;28;20042;-68
2022/01/01 08:21:50;;;;;;;68.32;27.98;;;10.90;99.90;;;;;;5024394;28;20107;-68
2022/01/01 08:24:16;;;;;;;55.28;25.70;;;10.80;99.90;;;;;;5012883;28;20045;-67
2022/01/01 08:26:41;;;;;;;62.20;26.60;;;10.80;99.90;;;;;;5011434;28;20480;-67
2022/01/01 08:29:07;;;;;;;58.55;26.10;;;10.80;99.90;;;;;;5008617;28;20048;-67
2022/01/01 08:31:32;;;;;;;50.28;25.02;;;10.80;99.90;;;;;;5019235;28;20124;-67
2022/01/01 08:33:58;;;;;;;50.67;24.42;;;10.80;99.90;;;;;;5022179;28;20136;-67
2022/01/01 08:36:23;;;;;;;55.88;26.05;;;10.80;99.90;;;;;;5004591;28;20140;-67
2022/01/01 08:38:49;;;;;;;53.50;22.92;;;10.80;99.90;;;;;;5016021;28;20120;-67
2022/01/01 08:41:15;;;;;;;56.15;25.67;;;10.80;99.90;;;;;;5001239;28;20045;-66
2022/01/01 08:43:40;;;;;;;50.90;23.58;;;10.80;99.90;;;;;;5008758;28;20045;-66
2022/01/01 08:46:07;;;;;;;43.97;21.00;;;10.90;99.90;;;;;;5008824;28;20067;-67
2022/01/01 08:48:33;;;;;;;53.92;21.58;;;10.90;99.90;;;;;;5024991;28;20063;-68
2022/01/01 08:50:59;;;;;;;46.25;21.17;;;11.00;99.90;;;;;;5025498;28;20076;-68
2022/01/01 08:53:24;;;;;;;44.47;21.38;;;11.00;99.90;;;;;;4995132;28;20541;-68
2022/01/01 08:55:50;;;;;;;54.72;25.15;;;11.00;99.90;;;;;;5023898;28;20044;-68
2022/01/01 08:58:16;;;;;;;49.47;23.70;;;11.00;99.90;;;;;;5019138;28;20041;-68
2022/01/01 09:00:41;;;;;;;70.15;28.02;;;11.00;99.90;;;;;;5020564;28;20037;-68
2022/01/01 09:03:07;;;;;;;47.83;24.77;;;11.00;99.90;;;;;;5020548;28;20052;-68
2022/01/01 09:05:33;;;;;;;58.97;27.13;;;10.90;99.90;;;;;;5027696;28;20054;-68
2022/01/01 09:07:58;;;;;;;65.00;28.10;;;10.90;99.90;;;;;;5027828;28;20665;-68
2022/01/01 09:10:24;;;;;;;61.25;29.35;;;10.90;99.90;;;;;;5022488;28;20128;-68
2022/01/01 09:12:49;;;;;;;65.35;30.63;;;10.90;99.90;;;;;;4996635;28;20508;-68
2022/01/01 09:15:15;;;;;;;61.53;28.98;;;10.90;99.90;;;;;;5027741;28;20087;-68
2022/01/01 09:17:41;;;;;;;56.60;26.75;;;10.90;99.90;;;;;;5006891;28;20034;-68
2022/01/01 09:20:07;;;;;;;48.90;25.85;;;10.90;99.90;;;;;;5007690;28;20155;-68
2022/01/01 09:22:32;;;;;;;62.42;27.67;;;11.00;99.90;;;;;;5011201;28;20049;-68
2022/01/01 09:24:58;;;;;;;56.72;27.08;;;11.00;99.90;;;;;;5015902;28;20050;-68
2022/01/01 09:27:24;;;;;;;49.25;26.52;;;11.00;99.90;;;;;;5017598;28;20127;-68
2022/01/01 09:29:49;;;;;;;57.50;28.00;;;11.00;99.90;;;;;;5022408;28;20367;-68
2022/01/01 09:32:15;;;;;;;51.60;27.15;;;11.00;99.90;;;;;;5007592;28;20045;-68
2022/01/01 09:34:40;;;;;;;48.72;24.48;;;11.00;99.90;;;;;;5003664;28;20444;-68
2022/01/01 09:37:06;;;;;;;49.17;25.63;;;11.00;99.90;;;;;;5020284;28;20045;-68
2022/01/01 09:39:32;;;;;;;56.58;27.40;;;11.00;99.90;;;;;;5018255;28;20042;-67
2022/01/01 09:42:01;;;;;;;55.25;25.13;;;11.00;99.90;;;;;;5006474;28;20171;-68
2022/01/01 09:44:26;;;;;;;46.88;24.35;;;10.90;99.90;;;;;;5013863;28;20049;-68
2022/01/01 09:46:52;;;;;;;50.80;24.75;;;10.90;99.90;;;;;;4998553;28;20038;-68
2022/01/01 09:49:19;;;;;;;45.30;23.58;;;10.90;99.90;;;;;;5021703;28;20043;-68
2022/01/01 09:51:45;;;;;;;54.55;23.20;;;10.90;99.90;;;;;;5022403;28;20898;-68
2022/01/01 09:54:11;;;;;;;53.22;24.92;;;10.90;99.90;;;;;;5016968;28;20549;-68
2022/01/01 09:56:37;;;;;;;42.38;23.75;;;10.90;99.90;;;;;;5022047;28;20057;-68
2022/01/01 09:59:03;;;;;;;43.05;23.90;;;10.90;99.90;;;;;;5010222;28;20400;-67
2022/01/01 10:01:29;;;;;;;48.83;22.05;;;10.90;99.90;;;;;;5023957;28;20037;-67
2022/01/01 10:03:58;;;;;;;52.65;20.80;;;10.90;99.90;;;;;;5024390;28;20045;-68
2022/01/01 10:06:26;;;;;;;37.85;20.77;;;10.90;99.90;;;;;;5021569;28;20057;-68
2022/01/01 10:08:57;;;;;;;39.20;20.20;;;10.90;99.90;;;;;;5012715;28;20061;-68
2022/01/01 10:11:23;;;;;;;34.90;18.50;;;10.90;99.90;;;;;;5013644;28;20054;-68
2022/01/01 10:13:50;;;;;;;39.60;18.08;;;10.90;99.90;;;;;;5010026;28;20067;-68
2022/01/01 10:16:16;;;;;;;37.05;15.93;;;10.90;99.90;;;;;;5020501;28;20088;-69
2022/01/01 10:18:48;;;;;;;27.00;14.95;;;11.00;99.90;;;;;;5024537;28;20045;-68
2022/01/01 10:21:16;;;;;;;31.60;15.00;;;11.00;99.90;;;;;;5016091;28;20050;-68
2022/01/01 10:23:44;;;;;;;29.73;14.35;;;11.00;99.90;;;;;;5019597;28;20077;-68
2022/01/01 10:29:06;;;;;;;44.33;16.13;;;11.10;99.90;;;;;;5000949;28;20050;-67
2022/01/01 10:31:33;;;;;;;27.63;13.90;;;11.10;99.90;;;;;;5012342;28;20061;-68
2022/01/01 10:33:59;;;;;;;33.83;14.30;;;11.10;99.90;;;;;;5008422;28;20140;-68
2022/01/01 10:36:25;;;;;;;28.83;14.05;;;11.10;99.90;;;;;;5031259;28;20127;-68
2022/01/01 10:38:50;;;;;;;29.52;13.43;;;11.20;99.90;;;;;;5025523;28;20079;-68
2022/01/01 10:41:17;;;;;;;27.90;13.15;;;11.20;99.90;;;;;;5023851;28;20045;-67
2022/01/01 10:43:44;;;;;;;25.55;12.40;;;11.20;99.90;;;;;;5020465;28;20059;-67
2022/01/01 10:46:13;;;;;;;32.05;12.63;;;11.20;99.90;;;;;;5027253;28;20060;-67
2022/01/01 10:48:52;;;;;;;28.75;12.30;;;11.30;99.90;;;;;;5009585;28;20042;-68
2022/01/01 10:51:19;;;;;;;30.00;13.63;;;11.30;99.90;;;;;;5028452;28;20049;-67
2022/01/01 10:53:45;;;;;;;29.83;12.50;;;11.30;99.90;;;;;;5004308;28;20042;-69
2022/01/01 10:56:18;;;;;;;31.98;14.98;;;11.30;99.90;;;;;;5030720;28;20056;-67
2022/01/01 10:58:44;;;;;;;31.00;14.57;;;11.40;99.90;;;;;;5022650;28;20087;-67
2022/01/01 11:01:11;;;;;;;38.08;14.13;;;11.40;99.90;;;;;;5023043;28;20046;-67
2022/01/01 11:03:43;;;;;;;29.63;12.95;;;11.40;99.90;;;;;;5030251;28;20052;-68
2022/01/01 11:06:11;;;;;;;25.35;12.23;;;11.40;99.90;;;;;;5017805;28;20067;-68
2022/01/01 11:08:42;;;;;;;29.08;13.05;;;11.50;99.90;;;;;;5025597;28;20033;-68
2022/01/01 11:11:10;;;;;;;32.00;13.75;;;11.50;99.90;;;;;;5017567;28;20096;-69
2022/01/01 11:13:37;;;;;;;26.10;13.52;;;11.50;99.90;;;;;;5027773;28;20046;-68
2022/01/01 11:16:04;;;;;;;35.58;12.60;;;11.50;99.90;;;;;;5017278;28;20489;-67
2022/01/01 11:18:32;;;;;;;19.92;11.80;;;11.60;99.90;;;;;;5019857;28;20389;-68
2022/01/01 11:20:58;;;;;;;26.60;12.77;;;11.60;99.90;;;;;;5020155;28;20500;-69
2022/01/01 11:23:25;;;;;;;21.90;11.25;;;11.70;99.90;;;;;;5026195;28;20045;-68
2022/01/01 11:25:52;;;;;;;25.27;11.73;;;11.70;99.90;;;;;;5021768;28;20049;-68
2022/01/01 11:28:19;;;;;;;27.42;11.65;;;11.80;99.90;;;;;;5007189;28;20053;-68
2022/01/01 11:30:47;;;;;;;26.83;12.55;;;11.80;99.90;;;;;;5011151;28;20160;-68
2022/01/01 11:33:16;;;;;;;19.02;10.40;;;11.80;99.90;;;;;;5029578;28;20563;-68
2022/01/01 11:35:44;;;;;;;21.55;10.20;;;11.80;99.90;;;;;;5019443;28;20056;-69
2022/01/01 11:38:12;;;;;;;18.10;10.50;;;11.80;99.90;;;;;;5009042;28;20041;-68
2022/01/01 11:40:45;;;;;;;19.42;10.15;;;11.80;99.90;;;;;;5017894;28;20133;-68
2022/01/01 11:43:42;;;;;;;25.67;11.55;;;11.80;99.90;;;;;;5019502;28;20069;-68
2022/01/01 11:46:17;;;;;;;27.92;10.13;;;11.80;99.90;;;;;;4992755;28;20439;-68
2022/01/01 11:49:03;;;;;;;21.23;10.38;;;11.90;99.90;;;;;;5024389;28;20117;-68
2022/01/01 11:51:35;;;;;;;20.23;9.93;;;11.80;99.90;;;;;;5027859;28;20075;-68
2022/01/01 11:54:24;;;;;;;25.40;9.68;;;11.90;99.90;;;;;;5025598;28;20392;-68
2022/01/01 11:56:50;;;;;;;19.77;9.90;;;11.90;99.90;;;;;;5010458;28;20201;-68
2022/01/01 11:59:36;;;;;;;21.85;11.45;;;11.90;99.90;;;;;;5016234;28;20136;-68
2022/01/01 12:02:22;;;;;;;20.92;9.90;;;11.90;99.90;;;;;;5009385;28;20045;-68
2022/01/01 12:04:50;;;;;;;23.40;10.13;;;11.90;99.90;;;;;;4985206;28;20050;-68
2022/01/01 12:07:16;;;;;;;21.98;9.38;;;11.90;99.90;;;;;;5018548;28;20492;-68
2022/01/01 12:10:06;;;;;;;24.05;9.52;;;11.90;99.90;;;;;;5027992;28;20053;-68
2022/01/01 12:12:45;;;;;;;19.30;9.70;;;11.90;99.90;;;;;;5014888;28;20409;-68
2022/01/01 12:15:24;;;;;;;20.63;9.18;;;11.90;99.90;;;;;;5019737;28;20270;-68
2022/01/01 12:18:08;;;;;;;21.60;10.13;;;11.80;99.90;;;;;;5023240;28;20041;-68
2022/01/01 12:20:50;;;;;;;28.65;10.30;;;11.90;99.90;;;;;;5015829;28;20052;-68
2022/01/01 12:23:21;;;;;;;26.45;11.73;;;11.90;99.90;;;;;;5018132;28;20045;-67
2022/01/01 12:25:48;;;;;;;24.45;10.95;;;11.90;99.90;;;;;;5016447;28;20398;-68
2022/01/01 12:28:17;;;;;;;26.95;12.65;;;11.80;99.90;;;;;;5015151;28;20116;-69
2022/01/01 12:31:08;;;;;;;17.48;10.20;;;11.80;99.90;;;;;;5007605;28;20065;-68
2022/01/01 12:33:43;;;;;;;23.00;10.57;;;11.80;99.90;;;;;;5012238;28;20046;-68